Time;durP1;ratioP1;P1;durP2;ratioP2;P2;SDS_P1;SDS_P2;PMS_P1;PMS_P2;Temp;Humidity;BMP_temperature;BMP_pressure;BME280_temperature;BME280_humidity;BME280_pressure;Samples;Min_cycle;Max_cycle;Signal;HPM_P1;HPM_P2
2021/04/14 00:01:57;;;;;;;;;;;;;;;8.09;93.49;101297.23;1859206;77;20579;-77
2021/04/14 00:04:27;;;;;;;;;;;;;;;8.09;93.78;101301.11;1855505;77;20119;-79
2021/04/14 00:06:56;;;;;;;;;;;;;;;8.11;94.36;101294.95;1859374;77;20237;-77
2021/04/14 00:09:25;;;;;;;;;;;;;;;8.15;94.58;101302.13;1858967;77;20497;-77
2021/04/14 00:11:52;;;;;;;;;;;;;;;8.19;94.60;101299.78;1859287;77;21180;-77
2021/04/14 00:14:21;;;;;;;;;;;;;;;8.19;94.49;101291.58;1859338;77;20198;-77
2021/04/14 00:16:49;;;;;;;;;;;;;;;8.20;94.44;101284.19;1859300;77;20146;-77
2021/04/14 00:19:17;;;;;;;;;;;;;;;8.20;94.39;101287.25;1859144;77;20222;-78
2021/04/14 00:21:47;;;;;;;;;;;;;;;8.18;94.42;101284.72;1859306;77;20479;-78
2021/04/14 00:24:16;;;;;;;;;;;;;;;8.20;94.62;101289.84;1859418;77;21186;-78
2021/04/14 00:26:46;;;;;;;;;;;;;;;8.20;94.74;101286.77;1859369;77;20107;-78
2021/04/14 00:29:14;;;;;;;;;;;;;;;8.23;94.75;101276.77;1859339;77;20164;-77
2021/04/14 00:31:44;;;;;;;;;;;;;;;8.26;94.74;101274.88;1859226;77;20213;-77
2021/04/14 00:34:19;;;;;;;;;;;;;;;8.29;94.72;101275.22;1859415;77;20142;-77
2021/04/14 00:36:48;;;;;;;;;;;;;;;8.31;94.79;101271.64;1859464;77;21177;-78
2021/04/14 00:39:22;;;;;;;;;;;;;;;8.36;94.95;101268.38;1859389;77;20218;-77
2021/04/14 00:41:50;;;;;;;;;;;;;;;8.40;94.81;101261.31;1859269;77;20312;-78
2021/04/14 00:44:19;;;;;;;;;;;;;;;8.42;94.72;101259.03;1859394;77;20590;-78
2021/04/14 00:46:48;;;;;;;;;;;;;;;8.46;94.71;101255.84;1859449;77;20495;-79
2021/04/14 00:49:16;;;;;;;;;;;;;;;8.46;94.56;101250.22;1859546;77;21250;-77
2021/04/14 00:51:45;;;;;;;;;;;;;;;8.43;94.48;101248.23;1859467;77;20130;-77
2021/04/14 00:54:12;;;;;;;;;;;;;;;8.39;94.59;101244.95;1859395;77;20472;-78
2021/04/14 00:56:40;;;;;;;;;;;;;;;8.35;94.77;101247.33;1859406;77;20237;-77
2021/04/14 00:59:10;;;;;;;;;;;;;;;8.33;94.91;101249.58;1859482;76;20476;-77
2021/04/14 01:01:39;;;;;;;;;;;;;;;8.30;95.16;101256.19;1859273;77;20292;-77
2021/04/14 01:04:08;;;;;;;;;;;;;;;8.32;95.65;101243.59;1859302;77;20146;-79
2021/04/14 01:06:36;;;;;;;;;;;;;;;8.39;95.91;101248.02;1859484;77;20304;-77
2021/04/14 01:09:06;;;;;;;;;;;;;;;8.47;96.05;101247.19;1859350;77;20185;-77
2021/04/14 01:11:34;;;;;;;;;;;;;;;8.57;95.94;101244.55;1859536;77;20264;-77
2021/04/14 01:14:02;;;;;;;;;;;;;;;8.68;95.72;101245.33;1859398;77;21189;-78
2021/04/14 01:16:29;;;;;;;;;;;;;;;8.74;95.40;101245.84;1859653;77;20508;-78
2021/04/14 01:18:59;;;;;;;;;;;;;;;8.80;95.15;101242.12;1859608;77;20213;-78
2021/04/14 01:21:39;;;;;;;;;;;;;;;8.79;95.05;101234.82;1859467;77;20281;-79
2021/04/14 01:24:10;;;;;;;;;;;;;;;8.81;95.08;101235.56;1859383;77;20174;-77
2021/04/14 01:26:37;;;;;;;;;;;;;;;8.81;94.92;101229.55;1859491;77;21188;-77
2021/04/14 01:29:07;;;;;;;;;;;;;;;8.79;94.92;101221.88;1859303;77;20218;-77
2021/04/14 01:31:36;;;;;;;;;;;;;;;8.77;94.96;101216.41;1859333;77;20146;-77
2021/04/14 01:34:07;;;;;;;;;;;;;;;8.74;95.09;101217.85;1859309;77;20225;-77
2021/04/14 01:36:35;;;;;;;;;;;;;;;8.70;95.27;101215.88;1859352;77;20252;-77
2021/04/14 01:39:07;;;;;;;;;;;;;;;8.66;95.43;101210.46;1859231;77;21185;-78
2021/04/14 01:41:35;;;;;;;;;;;;;;;8.62;95.53;101202.46;1859374;77;20356;-78
2021/04/14 01:44:04;;;;;;;;;;;;;;;8.59;95.66;101205.20;1856251;77;20138;-78
2021/04/14 01:46:34;;;;;;;;;;;;;;;8.58;95.91;101197.53;1856397;77;20469;-77
2021/04/14 01:49:02;;;;;;;;;;;;;;;8.55;96.15;101198.52;1859367;77;20500;-77
2021/04/14 01:51:29;;;;;;;;;;;;;;;8.53;96.22;101194.31;1855894;77;21089;-78
2021/04/14 01:53:59;;;;;;;;;;;;;;;8.49;96.32;101191.88;1859162;77;20182;-75
2021/04/14 01:56:26;;;;;;;;;;;;;;;8.50;96.43;101192.72;1859357;77;20272;-78
2021/04/14 01:58:56;;;;;;;;;;;;;;;8.46;96.57;101185.56;1859197;76;20668;-78
2021/04/14 02:01:24;;;;;;;;;;;;;;;8.47;96.79;101182.08;1859193;77;20241;-77
2021/04/14 02:03:52;;;;;;;;;;;;;;;8.46;96.97;101179.55;1859290;77;21189;-78
2021/04/14 02:06:20;;;;;;;;;;;;;;;8.43;97.20;101180.55;1859203;77;20154;-78
2021/04/14 02:08:48;;;;;;;;;;;;;;;8.42;97.49;101176.75;1859287;77;20598;-75
2021/04/14 02:11:17;;;;;;;;;;;;;;;8.41;97.78;101177.20;1859520;77;20713;-78
2021/04/14 02:13:46;;;;;;;;;;;;;;;8.41;97.80;101173.33;1859299;77;20221;-78
2021/04/14 02:16:17;;;;;;;;;;;;;;;8.42;97.94;101167.70;1859433;77;21196;-78
2021/04/14 02:18:45;;;;;;;;;;;;;;;8.39;98.02;101168.66;1859199;77;20181;-78
2021/04/14 02:21:13;;;;;;;;;;;;;;;8.38;98.16;101161.84;1859192;77;20332;-78
2021/04/14 02:23:42;;;;;;;;;;;;;;;8.36;98.11;101158.95;1859172;77;20214;-77
2021/04/14 02:26:15;;;;;;;;;;;;;;;8.34;98.27;101153.84;1859442;77;20492;-78
2021/04/14 02:28:47;;;;;;;;;;;;;;;8.35;98.44;101151.65;1859424;77;21895;-77
2021/04/14 02:31:16;;;;;;;;;;;;;;;8.35;98.52;101158.11;1859238;77;20197;-78
2021/04/14 02:33:44;;;;;;;;;;;;;;;8.36;98.51;101148.13;1859419;77;20127;-75
2021/04/14 02:36:11;;;;;;;;;;;;;;;8.37;98.63;101143.80;1859385;77;20127;-79
2021/04/14 02:38:40;;;;;;;;;;;;;;;8.38;98.74;101146.77;1859340;77;20230;-78
2021/04/14 02:41:07;;;;;;;;;;;;;;;8.37;98.73;101142.05;1859223;77;20575;-77
2021/04/14 02:43:35;;;;;;;;;;;;;;;8.37;98.73;101144.64;1859253;77;20107;-78
2021/04/14 02:46:02;;;;;;;;;;;;;;;8.38;98.81;101145.48;1859474;77;20126;-78
2021/04/14 02:48:32;;;;;;;;;;;;;;;8.41;98.78;101145.33;1859339;77;20193;-79
2021/04/14 02:50:59;;;;;;;;;;;;;;;8.42;98.82;101142.65;1859344;77;20246;-77
2021/04/14 02:53:27;;;;;;;;;;;;;;;8.47;98.85;101144.57;1859561;77;21175;-77
2021/04/14 02:55:55;;;;;;;;;;;;;;;8.50;98.86;101143.58;1859194;77;20213;-78
2021/04/14 02:58:23;;;;;;;;;;;;;;;8.55;98.76;101144.20;1859487;76;20217;-77
2021/04/14 03:00:51;;;;;;;;;;;;;;;8.61;98.59;101136.58;1859213;77;20221;-77
2021/04/14 03:03:19;;;;;;;;;;;;;;;8.64;98.20;101133.39;1859491;77;20158;-78
2021/04/14 03:05:48;;;;;;;;;;;;;;;8.68;97.86;101132.30;1859455;77;21421;-78
2021/04/14 03:08:16;;;;;;;;;;;;;;;8.69;97.63;101133.98;1866353;77;20161;-77
2021/04/14 03:10:43;;;;;;;;;;;;;;;8.73;97.40;101140.68;1859333;77;20126;-78
2021/04/14 03:13:11;;;;;;;;;;;;;;;8.76;97.21;101139.69;1859396;77;20529;-78
2021/04/14 03:15:40;;;;;;;;;;;;;;;8.81;97.00;101141.56;1859535;77;20296;-78
2021/04/14 03:18:09;;;;;;;;;;;;;;;8.86;96.73;101144.32;1859590;77;22349;-76
2021/04/14 03:20:37;;;;;;;;;;;;;;;8.88;96.42;101135.17;1859527;77;20560;-77
2021/04/14 03:23:05;;;;;;;;;;;;;;;8.91;96.20;101133.72;1859383;77;20138;-78
2021/04/14 03:25:33;;;;;;;;;;;;;;;8.93;95.92;101130.12;1859659;77;20127;-76
2021/04/14 03:28:01;;;;;;;;;;;;;;;8.97;95.69;101128.22;1859397;77;20209;-77
2021/04/14 03:30:29;;;;;;;;;;;;;;;9.01;95.48;101128.45;1859417;77;21194;-78
2021/04/14 03:32:57;;;;;;;;;;;;;;;9.03;95.28;101126.59;1859330;77;20300;-76
2021/04/14 03:35:26;;;;;;;;;;;;;;;9.02;95.08;101125.80;1859382;77;20134;-78
2021/04/14 03:37:53;;;;;;;;;;;;;;;9.03;94.91;101130.03;1859494;77;20712;-76
2021/04/14 03:40:21;;;;;;;;;;;;;;;9.06;94.98;101130.81;1859426;77;20158;-76
2021/04/14 03:42:52;;;;;;;;;;;;;;;9.07;94.91;101126.83;1859483;77;21240;-77
2021/04/14 03:45:28;;;;;;;;;;;;;;;9.09;94.86;101128.06;1804400;79;20249;-76
2021/04/14 03:47:54;;;;;;;;;;;;;;;9.09;94.83;101124.17;1853847;77;20522;-76
2021/04/14 03:50:21;;;;;;;;;;;;;;;9.09;94.72;101127.60;1856821;77;20214;-76
2021/04/14 03:52:49;;;;;;;;;;;;;;;9.11;94.67;101129.64;1857184;77;20230;-76
2021/04/14 03:55:18;;;;;;;;;;;;;;;9.12;94.58;101130.48;1857004;77;21191;-77
2021/04/14 03:58:04;;;;;;;;;;;;;;;9.12;94.56;101124.02;1857339;77;20507;-76
2021/04/14 04:00:33;;;;;;;;;;;;;;;9.13;94.46;101125.66;1856935;77;20214;-76
2021/04/14 04:03:01;;;;;;;;;;;;;;;9.12;94.31;101119.67;1856729;77;20142;-75
2021/04/14 04:05:29;;;;;;;;;;;;;;;9.13;94.23;101117.89;1861598;77;20257;-76
2021/04/14 04:07:56;;;;;;;;;;;;;;;9.13;94.23;101123.07;1857046;77;22099;-76
2021/04/14 04:10:24;;;;;;;;;;;;;;;9.14;94.25;101115.70;1856977;77;20222;-76
2021/04/14 04:12:53;;;;;;;;;;;;;;;9.14;94.22;101123.45;1857099;77;20149;-77
2021/04/14 04:15:22;;;;;;;;;;;;;;;9.13;94.24;101123.07;1857036;77;20576;-76
2021/04/14 04:17:50;;;;;;;;;;;;;;;9.14;94.22;101124.30;1856810;77;20257;-76
2021/04/14 04:20:19;;;;;;;;;;;;;;;9.14;94.12;101127.34;1857097;77;21191;-76
2021/04/14 04:22:47;;;;;;;;;;;;;;;9.16;94.30;101129.41;1856800;77;20374;-76
2021/04/14 04:25:16;;;;;;;;;;;;;;;9.18;94.33;101123.69;1856920;77;20512;-76
2021/04/14 04:27:44;;;;;;;;;;;;;;;9.21;94.24;101128.70;1856834;77;20210;-76
2021/04/14 04:30:12;;;;;;;;;;;;;;;9.25;94.09;101127.63;1856872;77;20225;-76
2021/04/14 04:32:40;;;;;;;;;;;;;;;9.30;93.96;101131.64;1857022;77;21591;-75
2021/04/14 04:35:10;;;;;;;;;;;;;;;9.32;93.73;101130.24;1857275;77;20142;-77
2021/04/14 04:37:38;;;;;;;;;;;;;;;9.33;93.78;101129.34;1857163;77;20131;-75
2021/04/14 04:40:06;;;;;;;;;;;;;;;9.33;93.77;101131.93;1857243;77;20584;-76
2021/04/14 04:42:34;;;;;;;;;;;;;;;9.35;93.81;101132.70;1856950;77;20289;-76
2021/04/14 04:45:03;;;;;;;;;;;;;;;9.39;93.81;101134.19;1856840;77;21030;-76
2021/04/14 04:47:30;;;;;;;;;;;;;;;9.39;93.83;101131.59;1852594;77;20138;-76
2021/04/14 04:49:58;;;;;;;;;;;;;;;9.46;93.93;101138.13;1856957;77;20371;-76
2021/04/14 04:52:26;;;;;;;;;;;;;;;9.50;93.88;101140.94;1838637;77;20592;-77
2021/04/14 04:54:54;;;;;;;;;;;;;;;9.56;93.79;101139.31;1835900;78;20482;-75
2021/04/14 04:57:22;;;;;;;;;;;;;;;9.59;93.65;101141.73;1836096;78;21182;-76
2021/04/14 04:59:49;;;;;;;;;;;;;;;9.60;93.71;101144.71;1836397;77;20242;-77
2021/04/14 05:02:18;;;;;;;;;;;;;;;9.64;93.75;101141.47;1836471;78;20143;-77
2021/04/14 05:04:47;;;;;;;;;;;;;;;9.67;93.75;101141.33;1835971;78;20211;-77
2021/04/14 05:07:14;;;;;;;;;;;;;;;9.72;93.69;101136.27;1836065;78;20492;-76
2021/04/14 05:09:44;;;;;;;;;;;;;;;9.81;93.66;101138.34;1835990;78;21240;-77
2021/04/14 05:12:12;;;;;;;;;;;;;;;9.92;93.45;101137.76;1835720;78;20218;-77
2021/04/14 05:14:54;;;;;;;;;;;;;;;9.99;93.13;101140.36;1835911;78;20535;-77
2021/04/14 05:17:33;;;;;;;;;;;;;;;10.06;92.83;101135.21;1836219;77;20866;-77
2021/04/14 05:20:14;;;;;;;;;;;;;;;10.14;92.44;101135.66;1835798;78;20305;-77
2021/04/14 05:23:12;;;;;;;;;;;;;;;10.19;91.92;101139.27;1835997;78;21136;-78
2021/04/14 05:26:00;;;;;;;;;;;;;;;10.22;91.51;101128.27;1836095;77;20214;-76
2021/04/14 05:29:01;;;;;;;;;;;;;;;10.27;91.30;101130.61;1835956;78;20127;-76
2021/04/14 05:32:41;;;;;;;;;;;;;;;10.30;90.94;101129.98;1835954;78;20268;-77
2021/04/14 05:35:45;;;;;;;;;;;;;;;10.32;90.80;101128.13;1836370;78;20606;-77
2021/04/14 05:38:45;;;;;;;;;;;;;;;10.36;89.93;101127.48;1836148;77;21430;-78
2021/04/14 05:41:47;;;;;;;;;;;;;;;10.40;89.74;101135.48;1836022;78;20139;-78
2021/04/14 05:44:48;;;;;;;;;;;;;;;10.42;89.39;101134.91;1836683;78;20123;-79
2021/04/14 05:47:36;;;;;;;;;;;;;;;10.50;89.02;101133.99;1838875;77;20138;-77
2021/04/14 05:50:06;;;;;;;;;;;;;;;10.55;87.87;101133.28;1835612;78;20249;-78
2021/04/14 05:52:33;;;;;;;;;;;;;;;10.60;87.92;101129.48;1841649;77;21371;-77
2021/04/14 05:55:01;;;;;;;;;;;;;;;10.67;87.72;101139.50;1837308;78;20769;-80
2021/04/14 05:57:33;;;;;;;;;;;;;;;10.69;87.54;101131.19;1828909;77;20136;-76
2021/04/14 06:00:00;;;;;;;;;;;;;;;10.69;87.43;101133.29;1833488;77;20551;-79
2021/04/14 06:02:32;;;;;;;;;;;;;;;10.67;87.16;101127.37;1861120;76;20494;-77
2021/04/14 06:05:02;;;;;;;;;;;;;;;10.65;87.05;101127.09;1858032;76;21363;-80
2021/04/14 06:07:31;;;;;;;;;;;;;;;10.67;87.03;101131.27;1868374;76;20238;-81
2021/04/14 06:10:00;;;;;;;;;;;;;;;10.73;86.76;101127.00;1850059;77;20167;-80
2021/04/14 06:12:28;;;;;;;;;;;;;;;10.72;86.30;101126.62;1853553;77;20215;-81
2021/04/14 06:14:56;;;;;;;;;;;;;;;10.77;86.08;101127.20;1853629;76;20259;-82
2021/04/14 06:17:25;;;;;;;;;;;;;;;10.82;85.52;101123.02;1853206;77;22170;-80
2021/04/14 06:19:53;;;;;;;;;;;;;;;10.83;84.85;101121.64;1853817;77;20192;-79
2021/04/14 06:22:21;;;;;;;;;;;;;;;10.82;84.51;101125.16;1853800;77;20267;-82
2021/04/14 06:24:53;;;;;;;;;;;;;;;10.86;84.53;101124.51;1853356;77;20203;-78
2021/04/14 06:27:36;;;;;;;;;;;;;;;10.90;84.18;101128.14;1832794;75;20208;-80
2021/04/14 06:30:02;;;;;;;;;;;;;;;10.96;83.98;101122.58;1871442;75;21193;-79
2021/04/14 06:32:31;;;;;;;;;;;;;;;11.01;83.69;101119.23;1847151;76;20249;-79
2021/04/14 06:34:59;;;;;;;;;;;;;;;11.01;83.13;101119.69;1865320;76;20277;-78
2021/04/14 06:37:27;;;;;;;;;;;;;;;10.96;83.14;101123.88;1842914;78;20155;-77
2021/04/14 06:40:29;;;;;;;;;;;;;;;10.99;83.27;101118.50;1847421;76;20139;-78
2021/04/14 06:42:51;;;;;;;;;;;;;;;11.05;83.12;101119.42;1869725;75;21196;-78
2021/04/14 06:45:25;;;;;;;;;;;;;;;11.06;83.14;101123.70;1894298;75;20159;-82
2021/04/14 06:48:06;;;;;;;;;;;;;;;11.09;82.83;101117.48;1890609;75;20146;-78
2021/04/14 06:50:45;;;;;;;;;;;;;;;11.11;82.90;101119.50;1850933;77;37545;-81
2021/04/14 06:53:22;;;;;;;;;;;;;;;11.15;83.06;101117.94;1872169;75;20215;-80
2021/04/14 06:55:52;;;;;;;;;;;;;;;11.25;83.13;101122.56;1850525;77;21171;-78
2021/04/14 06:58:22;;;;;;;;;;;;;;;11.26;83.14;101119.05;1847679;77;20206;-78
2021/04/14 07:01:02;;;;;;;;;;;;;;;11.29;83.06;101122.76;1843041;77;20242;-76
2021/04/14 07:04:00;;;;;;;;;;;;;;;11.27;83.00;101120.70;1860595;75;20210;-79
2021/04/14 07:06:32;;;;;;;;;;;;;;;11.22;82.99;101123.59;1865420;75;20509;-78
2021/04/14 07:09:21;;;;;;;;;;;;;;;11.26;83.62;101125.55;1888237;75;20415;-78
2021/04/14 07:11:48;;;;;;;;;;;;;;;11.34;83.74;101116.34;1856537;76;20210;-78
2021/04/14 07:14:19;;;;;;;;;;;;;;;11.41;83.71;101125.43;1854289;77;20225;-78
2021/04/14 07:17:09;;;;;;;;;;;;;;;11.45;83.50;101120.42;1849461;76;20213;-78
2021/04/14 07:20:00;;;;;;;;;;;;;;;11.47;83.08;101121.61;1849206;77;20582;-81
2021/04/14 07:22:37;;;;;;;;;;;;;;;11.47;82.64;101120.31;1847368;75;21245;-80
2021/04/14 07:25:11;;;;;;;;;;;;;;;11.50;82.45;101114.45;1855681;75;20433;-81
2021/04/14 07:27:52;;;;;;;;;;;;;;;11.44;81.60;101111.41;1813490;77;20276;-80
2021/04/14 07:30:37;;;;;;;;;;;;;;;11.39;82.27;101114.77;1840862;76;20229;-80
2021/04/14 07:33:27;;;;;;;;;;;;;;;11.32;82.47;101116.91;1863485;76;20287;-81
2021/04/14 07:36:06;;;;;;;;;;;;;;;11.29;82.63;101114.50;1784828;79;21661;-82
2021/04/14 07:39:10;;;;;;;;;;;;;;;11.28;82.05;101118.02;1844967;77;20512;-81
2021/04/14 07:41:54;;;;;;;;;;;;;;;11.26;82.03;101113.39;1777914;79;20392;-79
2021/04/14 07:44:29;;;;;;;;;;;;;;;11.26;82.38;101106.90;1763093;79;20346;-81
2021/04/14 07:46:56;;;;;;;;;;;;;;;11.31;82.53;101106.59;1787238;78;20352;-81
2021/04/14 07:49:27;;;;;;;;;;;;;;;11.39;81.86;101110.38;1833746;78;21182;-81
2021/04/14 07:51:59;;;;;;;;;;;;;;;11.43;81.81;101108.42;1827306;77;20299;-81
2021/04/14 07:54:41;;;;;;;;;;;;;;;11.38;82.08;101116.53;1843938;77;20288;-81
2021/04/14 07:57:13;;;;;;;;;;;;;;;11.41;82.29;101112.44;1808690;77;20209;-80
2021/04/14 07:59:44;;;;;;;;;;;;;;;11.49;82.50;101111.94;1816898;77;20228;-77
2021/04/14 08:02:14;;;;;;;;;;;;;;;11.54;81.82;101106.84;1835853;78;21188;-78
2021/04/14 08:04:47;;;;;;;;;;;;;;;11.63;82.31;101113.22;1795185;79;20134;-81
2021/04/14 08:07:21;;;;;;;;;;;;;;;11.74;82.54;101110.83;1837109;78;20193;-82
2021/04/14 08:10:00;;;;;;;;;;;;;;;11.75;82.46;101106.43;1837355;78;20273;-80
2021/04/14 08:12:39;;;;;;;;;;;;;;;11.70;82.19;101105.44;1796935;79;20153;-80
2021/04/14 08:15:14;;;;;;;;;;;;;;;11.59;82.80;101100.04;1851811;77;21260;-80
2021/04/14 08:17:48;;;;;;;;;;;;;;;11.50;83.30;101100.63;1841459;77;20151;-82
2021/04/14 08:20:27;;;;;;;;;;;;;;;11.42;83.38;101099.80;1841870;78;20222;-83
2021/04/14 08:23:20;;;;;;;;;;;;;;;11.39;83.59;101090.89;1841092;78;20594;-82
2021/04/14 08:25:52;;;;;;;;;;;;;;;11.35;84.04;101089.44;1841053;78;20223;-79
2021/04/14 08:28:27;;;;;;;;;;;;;;;11.36;85.19;101087.19;1840990;77;21182;-79
2021/04/14 08:32:28;;;;;;;;;;;;;;;11.33;85.54;101082.64;1832748;77;20604;-79
2021/04/14 08:34:22;;;;;;;;;;;;;;;11.21;85.84;101087.30;1819309;77;20203;-78
2021/04/14 08:36:58;;;;;;;;;;;;;;;11.11;86.67;101081.84;1836224;78;20211;-76
2021/04/14 08:39:41;;;;;;;;;;;;;;;10.97;87.13;101079.27;1841673;77;20309;-80
2021/04/14 08:42:25;;;;;;;;;;;;;;;10.93;87.63;101081.22;1838278;78;21304;-77
2021/04/14 08:45:06;;;;;;;;;;;;;;;10.93;88.05;101079.92;1848788;76;20376;-77
2021/04/14 08:47:37;;;;;;;;;;;;;;;11.00;88.40;101071.30;1799378;77;20229;-78
2021/04/14 08:50:19;;;;;;;;;;;;;;;10.97;89.12;101077.52;1833118;78;20340;-76
2021/04/14 08:52:49;;;;;;;;;;;;;;;10.96;89.44;101073.23;1793314;79;20230;-77
2021/04/14 08:55:20;;;;;;;;;;;;;;;10.93;90.09;101072.59;1798922;79;21205;-78
2021/04/14 08:57:48;;;;;;;;;;;;;;;10.92;90.67;101066.55;1834695;76;20628;-78
2021/04/14 09:00:17;;;;;;;;;;;;;;;10.91;91.30;101067.97;1819459;78;20206;-82
2021/04/14 09:02:52;;;;;;;;;;;;;;;10.94;91.39;101064.72;1841405;78;20507;-78
2021/04/14 09:05:25;;;;;;;;;;;;;;;10.95;90.99;101062.93;1843207;76;20257;-80
2021/04/14 09:07:54;;;;;;;;;;;;;;;10.93;90.93;101062.20;1862641;76;21346;-77
2021/04/14 09:11:09;;;;;;;;;;;;;;;10.94;91.19;101054.80;1789592;79;20218;-80
2021/04/14 09:13:34;;;;;;;;;;;;;;;10.87;91.27;101057.39;1835872;78;20234;-78
2021/04/14 09:16:06;;;;;;;;;;;;;;;10.88;91.86;101060.36;1841076;77;20231;-80
2021/04/14 09:18:40;;;;;;;;;;;;;;;10.86;92.15;101052.66;1841652;77;20646;-78
2021/04/14 09:21:21;;;;;;;;;;;;;;;10.87;92.67;101054.79;1841675;78;20513;-79
2021/04/14 09:24:03;;;;;;;;;;;;;;;10.95;93.02;101039.10;1841468;77;20238;-78
2021/04/14 09:26:39;;;;;;;;;;;;;;;10.99;93.04;101042.34;1842027;78;20127;-79
2021/04/14 09:29:26;;;;;;;;;;;;;;;10.97;93.07;101035.12;1841620;77;20214;-78
2021/04/14 09:31:57;;;;;;;;;;;;;;;10.89;93.14;101033.45;1791897;79;20266;-80
2021/04/14 09:34:38;;;;;;;;;;;;;;;10.93;93.53;101027.98;1847752;77;21945;-78
2021/04/14 09:37:21;;;;;;;;;;;;;;;10.94;93.04;101020.58;1844677;77;20154;-77
2021/04/14 09:39:52;;;;;;;;;;;;;;;10.93;93.22;101019.36;1842605;77;20135;-80
2021/04/14 09:42:39;;;;;;;;;;;;;;;10.96;93.41;101016.57;1842039;77;20123;-82
2021/04/14 09:45:18;;;;;;;;;;;;;;;11.01;93.54;101013.22;1841412;78;20717;-79
2021/04/14 09:47:49;;;;;;;;;;;;;;;11.04;93.60;101011.75;1841510;78;20313;-80
2021/04/14 09:50:21;;;;;;;;;;;;;;;11.00;93.51;101002.48;1841247;77;20130;-80
2021/04/14 09:52:56;;;;;;;;;;;;;;;10.98;93.45;101003.02;1841315;78;20476;-78
2021/04/14 09:55:38;;;;;;;;;;;;;;;10.96;93.57;101007.48;1841800;76;20351;-80
2021/04/14 09:58:08;;;;;;;;;;;;;;;10.94;93.51;101000.27;1784912;78;20245;-79
2021/04/14 10:00:42;;;;;;;;;;;;;;;10.83;93.06;100994.42;1841311;78;21172;-80
2021/04/14 10:03:13;;;;;;;;;;;;;;;10.77;93.49;100999.16;1842002;77;20579;-81
2021/04/14 10:05:47;;;;;;;;;;;;;;;10.71;93.53;100993.05;1792660;79;20238;-80
2021/04/14 10:08:17;;;;;;;;;;;;;;;10.56;93.12;100996.94;1844166;77;20154;-79
2021/04/14 10:10:48;;;;;;;;;;;;;;;10.49;93.56;100995.66;1842383;77;20493;-76
2021/04/14 10:13:17;;;;;;;;;;;;;;;10.45;93.79;100987.69;1842243;77;21244;-80
2021/04/14 10:15:47;;;;;;;;;;;;;;;10.42;93.96;100994.81;1841543;78;20531;-77
2021/04/14 10:18:23;;;;;;;;;;;;;;;10.44;94.27;100992.95;1841293;78;20127;-78
2021/04/14 10:20:56;;;;;;;;;;;;;;;10.47;94.47;100991.01;1841276;77;20126;-80
2021/04/14 10:23:34;;;;;;;;;;;;;;;10.49;94.56;100992.23;1842194;78;20504;-83
2021/04/14 10:26:10;;;;;;;;;;;;;;;10.48;94.40;100987.50;1842245;78;20277;-81
2021/04/14 10:28:42;;;;;;;;;;;;;;;10.48;94.29;100987.50;1841720;77;20175;-80
2021/04/14 10:31:27;;;;;;;;;;;;;;;10.50;93.98;100981.73;1842130;78;20195;-79
2021/04/14 10:34:02;;;;;;;;;;;;;;;10.53;93.81;100985.91;1831778;77;20289;-79
2021/04/14 10:36:41;;;;;;;;;;;;;;;10.53;93.50;100986.74;1840658;78;20238;-78
2021/04/14 10:39:13;;;;;;;;;;;;;;;10.54;93.60;100983.23;1841382;77;21346;-80
2021/04/14 10:41:42;;;;;;;;;;;;;;;10.58;93.85;100980.83;1841700;78;20492;-80
2021/04/14 10:44:27;;;;;;;;;;;;;;;10.60;93.72;100988.05;1842079;78;20238;-79
2021/04/14 10:47:02;;;;;;;;;;;;;;;10.59;93.70;100988.16;1841870;77;20229;-81
2021/04/14 10:49:32;;;;;;;;;;;;;;;10.55;94.03;100986.66;1841272;78;20508;-78
2021/04/14 10:52:02;;;;;;;;;;;;;;;10.53;94.02;100984.14;1841261;77;22279;-79
2021/04/14 10:54:34;;;;;;;;;;;;;;;10.54;94.14;100983.23;1841007;77;20147;-78
2021/04/14 10:57:08;;;;;;;;;;;;;;;10.57;94.19;100983.05;1841096;77;20214;-77
2021/04/14 10:59:39;;;;;;;;;;;;;;;10.59;93.96;100980.37;1841193;78;20489;-77
2021/04/14 11:02:11;;;;;;;;;;;;;;;10.57;93.79;100980.91;1840624;78;20221;-77
2021/04/14 11:04:40;;;;;;;;;;;;;;;10.56;93.62;100976.66;1839978;77;21217;-78
2021/04/14 11:07:11;;;;;;;;;;;;;;;10.57;93.67;100968.77;1841127;78;20637;-78
2021/04/14 11:09:43;;;;;;;;;;;;;;;10.61;93.50;100964.23;1840746;78;20177;-78
2021/04/14 11:12:18;;;;;;;;;;;;;;;10.68;93.19;100968.58;1841016;77;20206;-79
2021/04/14 11:14:49;;;;;;;;;;;;;;;10.72;92.85;100959.69;1841130;78;20214;-77
2021/04/14 11:17:21;;;;;;;;;;;;;;;10.75;92.92;100964.23;1841039;78;21190;-76
2021/04/14 11:20:12;;;;;;;;;;;;;;;10.78;93.00;100959.30;1841069;77;20131;-77
2021/04/14 11:22:45;;;;;;;;;;;;;;;10.78;92.79;100958.84;1843125;77;20266;-79
2021/04/14 11:25:31;;;;;;;;;;;;;;;10.79;92.67;100952.70;1840982;77;20625;-77
2021/04/14 11:28:09;;;;;;;;;;;;;;;10.74;92.36;100956.06;1782921;79;20533;-77
2021/04/14 11:30:52;;;;;;;;;;;;;;;10.72;92.23;100950.60;1781972;79;21638;-77
2021/04/14 11:33:23;;;;;;;;;;;;;;;10.68;92.00;100951.71;1781868;79;20128;-81
2021/04/14 11:35:52;;;;;;;;;;;;;;;10.64;91.80;100945.87;1800366;78;20316;-79
2021/04/14 11:38:43;;;;;;;;;;;;;;;10.60;91.68;100943.92;1812805;78;20328;-80
2021/04/14 11:41:27;;;;;;;;;;;;;;;10.61;91.89;100939.12;1814433;79;20223;-78
2021/04/14 11:43:59;;;;;;;;;;;;;;;10.68;92.64;100941.33;1814617;79;21803;-79
2021/04/14 11:46:37;;;;;;;;;;;;;;;10.67;93.12;100927.97;1815329;79;20113;-78
2021/04/14 11:49:10;;;;;;;;;;;;;;;10.59;93.50;100927.98;1815224;79;20125;-80
2021/04/14 11:51:40;;;;;;;;;;;;;;;10.39;93.46;100917.17;1814767;79;23043;-78
2021/04/14 11:54:17;;;;;;;;;;;;;;;10.21;93.99;100924.29;1816096;79;20184;-79
2021/04/14 11:57:01;;;;;;;;;;;;;;;10.04;95.04;100919.27;1807663;79;21233;-78
2021/04/14 11:59:31;;;;;;;;;;;;;;;9.90;96.11;100916.64;1764170;79;20319;-79
2021/04/14 12:02:03;;;;;;;;;;;;;;;9.84;97.35;100910.53;1814349;78;20585;-79
2021/04/14 12:04:32;;;;;;;;;;;;;;;9.78;98.55;100903.95;1811509;79;20681;-82
2021/04/14 12:07:10;;;;;;;;;;;;;;;9.76;99.54;100903.69;1815377;79;20299;-78
2021/04/14 12:09:40;;;;;;;;;;;;;;;9.77;100.00;100898.85;1801956;79;21371;-78
2021/04/14 12:12:10;;;;;;;;;;;;;;;9.78;100.00;100896.64;1800738;79;20276;-80
2021/04/14 12:14:42;;;;;;;;;;;;;;;9.69;100.00;100888.95;1807785;78;20188;-78
2021/04/14 12:17:12;;;;;;;;;;;;;;;9.64;100.00;100888.83;1815236;79;20232;-81
2021/04/14 12:19:44;;;;;;;;;;;;;;;9.61;100.00;100887.26;1814877;79;20209;-80
2021/04/14 12:22:13;;;;;;;;;;;;;;;9.60;100.00;100886.06;1835839;78;21662;-78
2021/04/14 12:24:44;;;;;;;;;;;;;;;9.59;100.00;100890.41;1836606;77;20226;-78
2021/04/14 12:27:21;;;;;;;;;;;;;;;9.57;100.00;100880.13;1835995;78;20214;-78
2021/04/14 12:29:49;;;;;;;;;;;;;;;9.60;100.00;100876.54;1836052;77;20218;-82
2021/04/14 12:32:20;;;;;;;;;;;;;;;9.61;100.00;100872.17;1836284;78;20400;-79
2021/04/14 12:34:49;;;;;;;;;;;;;;;9.60;100.00;100864.05;1835821;78;21187;-79
2021/04/14 12:37:18;;;;;;;;;;;;;;;9.64;100.00;100861.16;1835740;77;20123;-80
2021/04/14 12:39:47;;;;;;;;;;;;;;;9.64;100.00;100861.63;1835911;78;20120;-79
2021/04/14 12:42:17;;;;;;;;;;;;;;;9.64;100.00;100859.03;1834660;78;20135;-78
2021/04/14 12:44:45;;;;;;;;;;;;;;;9.60;100.00;100853.22;1835822;78;20214;-78
2021/04/14 12:47:15;;;;;;;;;;;;;;;9.58;100.00;100857.64;1836079;77;22122;-78
2021/04/14 12:49:43;;;;;;;;;;;;;;;9.58;100.00;100851.16;1836365;77;20587;-79
2021/04/14 12:52:21;;;;;;;;;;;;;;;9.57;100.00;100852.91;1836827;78;20234;-80
2021/04/14 12:54:51;;;;;;;;;;;;;;;9.55;100.00;100849.59;1836448;78;20175;-77
2021/04/14 12:57:22;;;;;;;;;;;;;;;9.51;100.00;100849.39;1835164;77;20674;-78
2021/04/14 13:00:02;;;;;;;;;;;;;;;9.47;100.00;100847.93;1836425;77;21193;-80
2021/04/14 13:02:45;;;;;;;;;;;;;;;9.47;100.00;100842.75;1836011;77;20182;-79
2021/04/14 13:05:35;;;;;;;;;;;;;;;9.49;100.00;100842.19;1835726;77;20147;-81
2021/04/14 13:08:06;;;;;;;;;;;;;;;9.52;100.00;100837.28;1836885;77;20812;-80
2021/04/14 13:10:42;;;;;;;;;;;;;;;9.52;100.00;100830.80;1835773;77;20226;-80
2021/04/14 13:13:09;;;;;;;;;;;;;;;9.53;100.00;100828.14;1836976;77;22232;-81